< < Back
Terminal Aerodrome Forecast


Current Version              Previous Versions:   1  2  3  4  5  6  7  8  9  

Terminal Aerodrome Forecast

322
FTUS42 KFFC 011700
TAFAHN
TAF
KAHN 011720Z 0118/0218 21004KT P6SM SCT050
     FM020100 VRB03KT P6SM SKC
     FM021000 VRB03KT 5SM BR SCT030
     FM021200 17003KT P6SM BKN030
     FM021500 17004KT P6SM SCT045=

Latest METAR

613
SAUS70 KWBC 020000 RRA
MTRAHN
METAR KAHN 012351Z 00000KT 10SM CLR 21/17 A2999 RMK AO2 SLP153 T02110167
10300 20211 51007


USA.gov is the U.S. government's official web portal to all federal, state and local government web resources and services.